Cropseyville, New York
Current Conditions -  °F | °C
As of 12:12 AM on Tuesday 27 Jan 2015 (Local Time) from KALB Reporting Station
Overcast Overcast  
Wind Chill:   Ceiling: 6500
Heat Index: 17°   Visibility: 10mi
Dew Point:   Wind: 9mph
Humidity: 56%   Direction: 10°N
Pressure: 29.9"   Gusts: NA
Location:  42.75°N, 73.56°W
Report Text: KALB 270512Z 01008KT 10SM BKN065 OVC110 M08/M16 A2990 RMK AO2 T10831156 $
Loading
Personal Weather Stations






























Interactive Weather Map New forecast layout! Learn more

10-Day Weather Forecast

Advertisements
Track Severe Weather on mobile